createdAt,value
2019-01-06T00:02:29.867Z,3.68
2019-01-06T00:05:26.759Z,3.78
2019-01-06T00:08:20.898Z,3.63
2019-01-06T00:11:07.602Z,3.63
2019-01-06T00:14:01.651Z,3.66
2019-01-06T00:16:48.454Z,3.62
2019-01-06T00:19:35.337Z,3.67
2019-01-06T00:22:22.068Z,3.64
2019-01-06T00:25:16.216Z,3.64
2019-01-06T00:28:04.284Z,3.62
2019-01-06T00:30:52.149Z,3.58
2019-01-06T00:33:38.972Z,3.56
2019-01-06T00:36:30.522Z,3.61
2019-01-06T00:39:17.023Z,3.62
2019-01-06T00:42:08.172Z,3.55
2019-01-06T00:45:04.987Z,3.54
2019-01-06T00:47:53.626Z,3.63
2019-01-06T00:50:40.103Z,3.56
2019-01-06T00:53:34.247Z,3.61
2019-01-06T00:56:21.007Z,3.51
2019-01-06T00:59:07.867Z,3.54
2019-01-06T01:01:58.940Z,3.51
2019-01-06T01:04:46.992Z,3.56
2019-01-06T01:07:33.837Z,3.57
2019-01-06T01:10:27.813Z,3.48
2019-01-06T01:13:15.911Z,3.51
2019-01-06T01:16:02.508Z,3.61
2019-01-06T01:18:44.028Z,3.52
2019-01-06T01:21:33.068Z,3.48
2019-01-06T01:24:19.778Z,3.38
2019-01-06T01:27:06.220Z,3.36
2019-01-06T01:30:05.637Z,3.44
2019-01-06T01:32:49.099Z,3.39
2019-01-06T01:35:40.094Z,3.36
2019-01-06T01:38:26.648Z,3.36
2019-01-06T01:41:06.099Z,3.29
2019-01-06T01:43:51.859Z,3.46
2019-01-06T01:46:49.328Z,3.46
2019-01-06T01:49:36.053Z,3.30
2019-01-06T01:52:29.948Z,3.33
2019-01-06T01:55:16.484Z,3.33
2019-01-06T01:58:02.973Z,3.42
2019-01-06T02:00:51.049Z,3.42
2019-01-06T02:03:45.205Z,3.39
2019-01-06T02:06:42.451Z,3.35
2019-01-06T02:09:30.531Z,3.30
2019-01-06T02:12:24.557Z,3.30
2019-01-06T02:15:18.483Z,3.28
2019-01-06T02:18:16.916Z,3.26
2019-01-06T02:21:07.059Z,3.24
2019-01-06T02:24:00.734Z,3.36
2019-01-06T02:26:49.642Z,3.28
2019-01-06T02:29:40.785Z,3.31
2019-01-06T02:32:41.028Z,3.31
2019-01-06T02:35:38.189Z,3.26
2019-01-06T02:38:35.032Z,3.25
2019-01-06T02:41:21.865Z,3.26
2019-01-06T02:44:08.574Z,3.16
2019-01-06T02:47:11.616Z,3.21
2019-01-06T02:50:06.929Z,3.18
2019-01-06T02:53:09.480Z,3.19
2019-01-06T02:56:12.480Z,3.20
2019-01-06T02:58:59.185Z,3.20
2019-01-06T03:01:46.046Z,3.13
2019-01-06T03:04:37.199Z,3.20
2019-01-06T03:07:27.394Z,3.22
2019-01-06T03:10:15.444Z,3.18
2019-01-06T03:13:11.440Z,3.12
2019-01-06T03:15:57.905Z,3.11
2019-01-06T03:19:04.194Z,3.12
2019-01-06T03:21:50.821Z,3.16
2019-01-06T03:24:47.625Z,3.10
2019-01-06T03:27:37.383Z,3.16
2019-01-06T03:30:19.069Z,3.19
2019-01-06T03:33:16.258Z,3.15
2019-01-06T03:36:02.772Z,3.12
2019-01-06T03:38:44.856Z,3.19
2019-01-06T03:41:50.856Z,3.28
2019-01-06T03:44:44.921Z,3.24
2019-01-06T03:47:31.397Z,3.29
2019-01-06T03:50:17.835Z,3.16
2019-01-06T03:53:04.506Z,3.20
2019-01-06T03:55:51.294Z,3.29
2019-01-06T03:58:45.185Z,3.26
2019-01-06T04:01:36.407Z,3.20
2019-01-06T04:04:22.918Z,3.24
2019-01-06T04:07:09.450Z,3.23
2019-01-06T04:09:56.135Z,3.24
2019-01-06T04:12:50.315Z,3.21
2019-01-06T04:15:38.382Z,3.14
2019-01-06T04:18:35.498Z,3.24
2019-01-06T04:21:16.267Z,3.24
2019-01-06T04:24:03.332Z,3.16
2019-01-06T04:26:51.386Z,3.12
2019-01-06T04:29:35.010Z,3.09
2019-01-06T04:32:31.983Z,3.18
2019-01-06T04:35:28.927Z,3.33
2019-01-06T04:38:32.955Z,3.15
2019-01-06T04:41:23.831Z,3.10
2019-01-06T04:44:29.830Z,3.11
2019-01-06T04:47:23.732Z,3.12
2019-01-06T04:50:23.740Z,3.10
2019-01-06T04:53:26.799Z,3.23
2019-01-06T04:56:29.970Z,3.17
2019-01-06T04:59:16.451Z,3.15
2019-01-06T05:02:19.776Z,3.17
2019-01-06T05:05:06.600Z,3.09
2019-01-06T05:07:54.651Z,3.11
2019-01-06T05:10:41.206Z,3.18
2019-01-06T05:13:30.667Z,3.18
2019-01-06T05:16:17.185Z,3.14
2019-01-06T05:18:57.438Z,3.17
2019-01-06T05:21:45.486Z,3.26
2019-01-06T05:24:45.350Z,3.17
2019-01-06T05:27:47.632Z,3.20
2019-01-06T05:30:34.036Z,3.27
2019-01-06T05:33:38.198Z,3.29
2019-01-06T05:36:31.180Z,3.27
2019-01-06T05:39:17.590Z,3.29
2019-01-06T05:42:08.808Z,3.23
2019-01-06T05:44:46.410Z,3.26
2019-01-06T05:47:34.464Z,3.22
2019-01-06T05:50:22.369Z,3.18
2019-01-06T05:53:09.695Z,3.17
2019-01-06T05:56:00.592Z,3.24
2019-01-06T05:58:57.637Z,3.22
2019-01-06T06:01:44.332Z,3.33
2019-01-06T06:04:30.994Z,3.30
2019-01-06T06:07:34.163Z,3.24
2019-01-06T06:10:34.079Z,3.22
2019-01-06T06:13:27.968Z,3.30
2019-01-06T06:16:14.471Z,3.29
2019-01-06T06:19:01.143Z,3.29
2019-01-06T06:21:49.318Z,3.33
2019-01-06T06:24:36.121Z,3.23
2019-01-06T06:27:39.363Z,3.27
2019-01-06T06:30:30.231Z,3.35
2019-01-06T06:33:24.176Z,3.30
2019-01-06T06:36:02.911Z,3.28
2019-01-06T06:38:53.742Z,3.37
2019-01-06T06:41:35.377Z,3.27
2019-01-06T06:44:35.577Z,3.30
2019-01-06T06:47:38.591Z,3.33
2019-01-06T06:50:25.451Z,3.34
2019-01-06T06:53:12.183Z,3.33
2019-01-06T06:55:58.872Z,3.37
2019-01-06T06:58:58.920Z,3.24
2019-01-06T07:02:42.851Z,3.30
2019-01-06T07:05:28.907Z,3.32
2019-01-06T07:08:19.778Z,3.36
2019-01-06T07:11:05.008Z,3.33
2019-01-06T07:13:53.180Z,3.28
2019-01-06T07:17:20.303Z,3.30
2019-01-06T07:20:08.383Z,3.33
2019-01-06T07:23:08.701Z,3.35
2019-01-06T07:25:55.402Z,3.30
2019-01-06T07:28:42.218Z,3.25
2019-01-06T07:31:26.532Z,3.31
2019-01-06T07:34:20.679Z,3.32
2019-01-06T07:37:11.470Z,3.27
2019-01-06T07:39:57.951Z,3.26
2019-01-06T07:42:42.180Z,3.29
2019-01-06T07:45:50.315Z,3.35
2019-01-06T07:48:37.073Z,3.31
2019-01-06T07:51:19.495Z,3.28
2019-01-06T07:54:11.991Z,3.33
2019-01-06T07:57:09.237Z,3.38
2019-01-06T08:00:03.542Z,3.31
2019-01-06T08:02:59.863Z,3.24
2019-01-06T08:05:46.377Z,3.43
2019-01-06T08:08:36.811Z,3.38
2019-01-06T08:11:25.086Z,3.31
2019-01-06T08:14:11.868Z,3.41
2019-01-06T08:16:58.540Z,3.34
2019-01-06T08:19:55.811Z,3.36
2019-01-06T08:22:42.490Z,3.45
2019-01-06T08:25:34.429Z,3.36
2019-01-06T08:28:22.490Z,3.34
2019-01-06T08:31:09.029Z,3.42
2019-01-06T08:33:55.725Z,3.44
2019-01-06T08:36:52.388Z,3.52
2019-01-06T08:39:38.878Z,3.42
2019-01-06T08:42:25.662Z,3.38
2019-01-06T08:45:12.227Z,3.51
2019-01-06T08:47:58.955Z,3.44
2019-01-06T08:50:59.115Z,3.40
2019-01-06T08:53:39.616Z,3.36
2019-01-06T08:56:26.259Z,3.40
2019-01-06T08:59:13.400Z,3.55
2019-01-06T09:02:01.471Z,3.45
2019-01-06T09:04:50.912Z,3.46
2019-01-06T09:07:37.424Z,3.51
2019-01-06T09:10:37.466Z,3.46
2019-01-06T09:13:31.678Z,3.48
2019-01-06T09:16:18.208Z,3.53
2019-01-06T09:19:04.956Z,3.48
2019-01-06T09:21:55.527Z,3.42
2019-01-06T09:24:42.347Z,3.47
2019-01-06T09:27:48.586Z,3.50
2019-01-06T09:30:34.903Z,3.57
2019-01-06T09:33:28.954Z,3.52
2019-01-06T09:36:06.008Z,3.56
2019-01-06T09:38:56.954Z,3.53
2019-01-06T09:41:43.475Z,3.58
2019-01-06T09:44:31.503Z,3.61
2019-01-06T09:47:28.400Z,3.58
2019-01-06T09:50:16.464Z,3.55
2019-01-06T09:53:22.551Z,3.52
2019-01-06T09:56:22.712Z,3.58
2019-01-06T09:59:10.768Z,3.50
2019-01-06T10:01:57.480Z,3.52
2019-01-06T10:05:03.806Z,3.71
2019-01-06T10:07:51.247Z,3.59
2019-01-06T10:10:37.531Z,3.64
2019-01-06T10:13:24.072Z,3.57
2019-01-06T10:16:18.234Z,3.67
2019-01-06T10:18:58.399Z,3.58
2019-01-06T10:21:46.468Z,3.71
2019-01-06T10:24:31.103Z,3.73
2019-01-06T10:30:17.396Z,3.74
2019-01-06T10:33:11.651Z,3.77
2019-01-06T10:35:58.161Z,3.98
2019-01-06T10:38:55.145Z,3.99
2019-01-06T10:41:49.320Z,4.09
2019-01-06T10:44:55.575Z,4.06
2019-01-06T10:47:42.136Z,4.15
2019-01-06T10:50:42.444Z,3.97
2019-01-06T10:53:25.435Z,4.03
2019-01-06T10:56:09.894Z,3.98
2019-01-06T10:59:09.879Z,3.99
2019-01-06T11:02:13.342Z,3.83
2019-01-06T11:05:15.170Z,4.14
2019-01-06T11:08:03.254Z,4.16
2019-01-06T11:10:49.902Z,4.05
2019-01-06T11:13:33.255Z,4.03
2019-01-06T11:16:21.302Z,4.23
2019-01-06T11:19:08.119Z,4.16
2019-01-06T11:21:54.637Z,4.36
2019-01-06T11:24:41.417Z,4.17
2019-01-06T11:27:28.309Z,4.29
2019-01-06T11:30:19.415Z,4.21
2019-01-06T11:33:12.446Z,4.10
2019-01-06T11:35:59.247Z,4.13
2019-01-06T11:38:56.142Z,4.23
2019-01-06T11:41:49.261Z,4.38
2019-01-06T11:44:42.854Z,4.52
2019-01-06T11:47:33.132Z,4.39
2019-01-06T11:50:21.217Z,4.35
2019-01-06T11:53:16.908Z,4.37
2019-01-06T11:56:03.647Z,4.33
2019-01-06T11:58:54.771Z,4.39
2019-01-06T12:01:57.959Z,4.31
2019-01-06T12:04:46.034Z,4.39
2019-01-06T12:07:37.137Z,4.35
2019-01-06T12:10:25.690Z,4.19
2019-01-06T12:13:12.562Z,4.02
2019-01-06T12:16:03.460Z,4.19
2019-01-06T12:18:54.046Z,4.05
2019-01-06T12:21:42.121Z,4.12
2019-01-06T12:24:42.147Z,4.13
2019-01-06T12:27:20.527Z,3.98
2019-01-06T12:30:11.364Z,3.97
2019-01-06T12:32:56.262Z,3.95
2019-01-06T12:35:55.146Z,4.05
2019-01-06T12:38:50.954Z,4.04
2019-01-06T12:41:37.776Z,4.04
2019-01-06T12:44:24.472Z,4.12
2019-01-06T12:47:20.425Z,4.09
2019-01-06T12:50:11.628Z,3.96
2019-01-06T12:53:02.930Z,3.98
2019-01-06T12:56:09.104Z,3.95
2019-01-06T12:58:55.690Z,4.17
2019-01-06T13:01:51.362Z,3.99
2019-01-06T13:04:41.615Z,3.90
2019-01-06T13:07:28.497Z,4.09
2019-01-06T13:10:19.374Z,3.92
2019-01-06T13:13:19.718Z,3.99
2019-01-06T13:16:07.767Z,3.92
2019-01-06T13:18:58.715Z,4.06
2019-01-06T13:21:44.836Z,4.00
2019-01-06T13:24:31.382Z,4.09
2019-01-06T13:27:18.199Z,3.96
2019-01-06T13:30:09.050Z,3.96
2019-01-06T13:32:57.118Z,4.07
2019-01-06T13:36:03.219Z,4.08
2019-01-06T13:38:57.110Z,4.05
2019-01-06T13:42:02.828Z,4.08
2019-01-06T13:44:49.281Z,4.28
2019-01-06T13:47:36.046Z,4.21
2019-01-06T13:50:16.897Z,3.99
2019-01-06T13:52:59.789Z,4.07
2019-01-06T13:55:46.343Z,4.07
2019-01-06T13:58:30.738Z,4.10
2019-01-06T14:01:17.469Z,4.05
2019-01-06T14:04:12.369Z,4.10
2019-01-06T14:06:58.874Z,4.11
2019-01-06T14:10:04.920Z,4.02
2019-01-06T14:12:51.522Z,4.05
2019-01-06T14:15:46.058Z,4.32
2019-01-06T14:18:40.009Z,4.19
2019-01-06T14:21:26.801Z,4.16
2019-01-06T14:24:09.620Z,4.00
2019-01-06T14:27:12.607Z,4.12
2019-01-06T14:29:54.198Z,4.03
2019-01-06T14:32:48.063Z,3.98
2019-01-06T14:35:29.024Z,3.79
2019-01-06T14:38:20.927Z,3.85
2019-01-06T14:41:03.217Z,3.79
2019-01-06T14:43:51.272Z,3.68
2019-01-06T14:46:38.809Z,3.67
2019-01-06T14:49:32.696Z,3.52
2019-01-06T14:52:22.763Z,3.55
2019-01-06T14:55:23.054Z,3.51
2019-01-06T14:58:05.066Z,3.50
2019-01-06T15:00:54.683Z,3.53
2019-01-06T15:03:51.769Z,3.49
2019-01-06T15:06:38.315Z,3.49
2019-01-06T15:09:41.593Z,3.46
2019-01-06T15:12:29.693Z,3.47
2019-01-06T15:15:16.485Z,3.46
2019-01-06T15:18:06.729Z,3.51
2019-01-06T15:20:53.238Z,3.47
2019-01-06T15:23:44.465Z,3.49
2019-01-06T15:26:47.550Z,3.47
2019-01-06T15:29:50.689Z,3.44
2019-01-06T15:32:38.764Z,3.39
2019-01-06T15:35:31.612Z,3.42
2019-01-06T15:38:37.610Z,3.41
2019-01-06T15:41:40.241Z,3.37
2019-01-06T15:44:36.029Z,3.35
2019-01-06T15:47:23.408Z,3.35
2019-01-06T15:50:20.418Z,3.25
2019-01-06T15:53:14.779Z,3.27
2019-01-06T15:56:11.970Z,3.20
2019-01-06T15:58:58.453Z,3.17
2019-01-06T16:01:44.985Z,3.27
2019-01-06T16:04:25.534Z,3.23
2019-01-06T16:07:12.113Z,3.34
2019-01-06T16:09:58.861Z,3.30
2019-01-06T16:12:49.854Z,3.30
2019-01-06T16:15:36.737Z,3.14
2019-01-06T16:18:33.985Z,3.15
2019-01-06T16:21:30.197Z,3.18
2019-01-06T16:24:27.088Z,3.15
2019-01-06T16:27:13.637Z,3.26
2019-01-06T16:30:01.644Z,3.23
2019-01-06T16:32:58.902Z,3.15
2019-01-06T16:35:54.653Z,3.16
2019-01-06T16:38:41.296Z,3.21
2019-01-06T16:41:41.515Z,3.22
2019-01-06T16:44:28.802Z,3.02
2019-01-06T16:47:15.589Z,3.00
2019-01-06T16:50:02.278Z,3.07
2019-01-06T16:52:49.231Z,2.95
2019-01-06T16:55:35.711Z,3.01
2019-01-06T16:58:23.800Z,3.02
2019-01-06T17:01:10.736Z,3.12
2019-01-06T17:03:57.182Z,3.02
2019-01-06T17:06:51.236Z,2.92
2019-01-06T17:09:38.053Z,2.82
2019-01-06T17:12:26.158Z,2.72
2019-01-06T17:15:20.140Z,2.64
2019-01-06T17:18:01.669Z,2.51
2019-01-06T17:20:55.754Z,2.50
2019-01-06T17:23:42.499Z,2.54
2019-01-06T17:26:29.333Z,2.57
2019-01-06T17:29:27.243Z,2.66
2019-01-06T17:32:24.146Z,2.76
2019-01-06T17:35:11.383Z,2.77
2019-01-06T17:38:02.578Z,2.70
2019-01-06T17:40:56.700Z,2.85
2019-01-06T17:43:53.883Z,2.84
2019-01-06T17:46:56.981Z,2.81
2019-01-06T17:49:57.158Z,2.79
2019-01-06T17:52:48.329Z,3.01
2019-01-06T17:55:34.883Z,2.87
2019-01-06T17:58:25.783Z,2.80
2019-01-06T18:01:25.766Z,2.83
2019-01-06T18:04:13.856Z,2.80
2019-01-06T18:07:00.636Z,2.75
2019-01-06T18:09:48.697Z,2.89
2019-01-06T18:12:36.698Z,2.74
2019-01-06T18:15:16.112Z,2.73
2019-01-06T18:18:07.889Z,2.77
2019-01-06T18:20:50.650Z,2.78
2019-01-06T18:23:50.989Z,2.77
2019-01-06T18:26:38.753Z,2.74
2019-01-06T18:29:25.850Z,2.77
2019-01-06T18:32:27.116Z,2.79
2019-01-06T18:35:14.097Z,2.78
2019-01-06T18:37:59.391Z,2.81
2019-01-06T18:40:44.463Z,2.84
2019-01-06T18:43:32.992Z,2.81
2019-01-06T18:46:20.024Z,2.85
2019-01-06T18:49:07.035Z,2.86
2019-01-06T18:51:55.246Z,2.83
2019-01-06T18:54:42.260Z,2.82
2019-01-06T18:57:44.722Z,2.91
2019-01-06T19:00:32.892Z,2.92
2019-01-06T19:03:23.829Z,2.86
2019-01-06T19:06:12.617Z,2.91
2019-01-06T19:08:53.382Z,2.89
2019-01-06T19:11:40.154Z,2.89
2019-01-06T19:14:28.283Z,2.90
2019-01-06T19:17:16.453Z,2.93
2019-01-06T19:20:06.493Z,2.94
2019-01-06T19:23:07.331Z,2.89
2019-01-06T19:25:58.809Z,2.89
2019-01-06T19:28:45.902Z,3.11
2019-01-06T19:31:32.592Z,2.92
2019-01-06T19:34:33.387Z,2.90
2019-01-06T19:37:20.053Z,2.88
2019-01-06T19:40:15.856Z,2.90
2019-01-06T19:43:00.684Z,2.88
2019-01-06T19:45:47.986Z,2.84
2019-01-06T19:48:33.733Z,2.90
2019-01-06T19:51:23.920Z,2.86
2019-01-06T19:54:21.003Z,2.82
2019-01-06T19:57:18.386Z,2.83
2019-01-06T20:00:02.529Z,2.86
2019-01-06T20:02:50.866Z,2.81
2019-01-06T20:05:37.612Z,2.81
2019-01-06T20:08:22.924Z,2.76
2019-01-06T20:11:09.793Z,2.76
2019-01-06T20:14:10.066Z,2.78
2019-01-06T20:17:18.050Z,2.76
2019-01-06T20:20:09.515Z,2.74
2019-01-06T20:23:00.662Z,2.75
2019-01-06T20:25:47.725Z,2.82
2019-01-06T20:28:36.033Z,2.81
2019-01-06T20:31:33.283Z,2.86
2019-01-06T20:34:20.558Z,2.82
2019-01-06T20:37:27.130Z,2.77
2019-01-06T20:40:18.403Z,2.79
2019-01-06T20:43:06.586Z,2.88
2019-01-06T20:45:53.960Z,2.78
2019-01-06T20:48:54.270Z,2.85
2019-01-06T20:51:43.162Z,2.78
2019-01-06T20:54:43.581Z,2.84
2019-01-06T20:57:49.707Z,2.79
2019-01-06T21:00:36.304Z,2.80
2019-01-06T21:03:39.313Z,2.78
2019-01-06T21:06:34.419Z,2.87
2019-01-06T21:09:37.703Z,2.83
2019-01-06T21:12:24.821Z,2.76
2019-01-06T21:15:11.781Z,2.78
2019-01-06T21:18:00.204Z,2.78
2019-01-06T21:20:48.444Z,2.79
2019-01-06T21:23:35.040Z,2.80
2019-01-06T21:26:21.793Z,2.80
2019-01-06T21:29:07.799Z,2.75
2019-01-06T21:31:54.332Z,2.77
2019-01-06T21:34:47.628Z,2.81
2019-01-06T21:37:36.710Z,2.84
2019-01-06T21:40:33.983Z,2.81
2019-01-06T21:43:20.793Z,2.85
2019-01-06T21:46:22.951Z,2.85
2019-01-06T21:49:15.832Z,2.89
2019-01-06T21:52:02.686Z,2.84
2019-01-06T21:54:58.370Z,2.86
2019-01-06T21:58:02.008Z,2.88
2019-01-06T22:00:41.280Z,2.86
2019-01-06T22:03:36.253Z,2.77
2019-01-06T22:06:25.859Z,2.76
2019-01-06T22:09:13.742Z,2.74
2019-01-06T22:12:20.088Z,2.78
2019-01-06T22:15:17.454Z,2.76
2019-01-06T22:18:06.427Z,2.77
2019-01-06T22:20:53.858Z,2.81
2019-01-06T22:24:00.522Z,2.78
2019-01-06T22:26:51.514Z,2.85
2019-01-06T22:29:41.239Z,2.81
2019-01-06T22:32:28.074Z,2.80
2019-01-06T22:35:29.017Z,2.81
2019-01-06T22:38:15.513Z,2.83
2019-01-06T22:41:15.681Z,2.84
2019-01-06T22:43:58.696Z,2.82
2019-01-06T22:46:46.578Z,2.83
2019-01-06T22:49:53.322Z,2.78
2019-01-06T22:52:41.737Z,2.87
2019-01-06T22:55:38.750Z,2.84
2019-01-06T22:58:30.742Z,2.83
2019-01-06T23:01:16.549Z,3.01
2019-01-06T23:03:59.925Z,2.83
2019-01-06T23:06:46.627Z,2.81
2019-01-06T23:09:38.335Z,2.78
2019-01-06T23:12:22.252Z,2.75
2019-01-06T23:15:24.149Z,2.83
2019-01-06T23:18:18.601Z,2.84
2019-01-06T23:21:10.609Z,2.75
2019-01-06T23:23:58.344Z,2.76
2019-01-06T23:26:46.570Z,2.80
2019-01-06T23:29:35.524Z,2.85
2019-01-06T23:32:22.873Z,2.77
2019-01-06T23:35:26.384Z,2.86
2019-01-06T23:38:15.406Z,2.86
2019-01-06T23:41:15.082Z,2.91
2019-01-06T23:44:15.165Z,2.83
2019-01-06T23:47:08.984Z,2.82
2019-01-06T23:50:03.781Z,2.81
2019-01-06T23:52:58.840Z,2.86
2019-01-06T23:55:46.065Z,2.88
2019-01-06T23:58:34.136Z,2.89
